createdAt,value
2019-01-26T00:03:00.058Z,100741.02
2019-01-26T00:06:37.113Z,100728.55
2019-01-26T00:10:21.749Z,100733.25
2019-01-26T00:14:06.452Z,100737.67
2019-01-26T00:17:51.112Z,100727.14
2019-01-26T00:21:35.808Z,100725.98
2019-01-26T00:25:20.502Z,100711.02
2019-01-26T00:29:05.071Z,100711.70
2019-01-26T00:32:49.706Z,100713.61
2019-01-26T00:36:34.283Z,100728.96
2019-01-26T00:40:18.946Z,100724.24
2019-01-26T00:44:03.579Z,100721.64
2019-01-26T00:47:48.233Z,100720.43
2019-01-26T00:51:32.818Z,100714.98
2019-01-26T00:55:17.437Z,100707.63
2019-01-26T00:59:02.064Z,100718.70
2019-01-26T01:02:46.752Z,100712.88
2019-01-26T01:06:25.970Z,100701.13
2019-01-26T01:10:30.634Z,100703.20
2019-01-26T01:18:05.547Z,100698.33
2019-01-26T01:21:50.234Z,100703.41
2019-01-26T01:25:34.859Z,100700.33
2019-01-26T01:29:19.485Z,100695.20
2019-01-26T01:33:04.130Z,100692.07
2019-01-26T01:40:52.512Z,100686.06
2019-01-26T01:44:37.147Z,100677.36
2019-01-26T01:48:22.074Z,100678.23
2019-01-26T01:52:03.066Z,100673.80
2019-01-26T01:55:47.073Z,100669.45
2019-01-26T01:59:32.295Z,100670.91
2019-01-26T02:03:16.919Z,100656.63
2019-01-26T02:07:01.542Z,100654.45
2019-01-26T02:10:46.162Z,100661.06
2019-01-26T02:14:30.764Z,100664.30
2019-01-26T02:18:34.832Z,100657.46
2019-01-26T02:22:19.474Z,100663.99
2019-01-26T02:26:04.111Z,100648.95
2019-01-26T02:29:48.775Z,100646.36
2019-01-26T02:33:33.372Z,100646.35
2019-01-26T02:37:17.984Z,100646.68
2019-01-26T02:41:02.636Z,100648.95
2019-01-26T02:44:47.534Z,100656.04
2019-01-26T02:48:32.173Z,100638.71
2019-01-26T02:52:09.759Z,100631.55
2019-01-26T02:55:54.402Z,100634.57
2019-01-26T02:59:39.022Z,100635.34
2019-01-26T03:03:23.668Z,100627.80
2019-01-26T03:07:08.267Z,100630.78
2019-01-26T03:10:52.885Z,100618.51
2019-01-26T03:14:37.484Z,100633.83
2019-01-26T03:18:22.073Z,100630.94
2019-01-26T03:22:06.730Z,100632.21
2019-01-26T03:25:51.331Z,100637.55
2019-01-26T03:29:35.968Z,100640.92
2019-01-26T03:33:20.602Z,100632.88
2019-01-26T03:37:05.196Z,100625.50
2019-01-26T03:40:49.825Z,100619.48
2019-01-26T03:44:34.811Z,100618.45
2019-01-26T03:48:19.732Z,100620.98
2019-01-26T03:51:56.866Z,100620.14
2019-01-26T03:55:41.767Z,100620.77
2019-01-26T03:59:26.399Z,100622.84
2019-01-26T04:03:11.022Z,100626.44
2019-01-26T04:06:55.737Z,100617.19
2019-01-26T04:10:40.346Z,100616.04
2019-01-26T04:14:24.928Z,100619.39
2019-01-26T04:18:09.623Z,100621.16
2019-01-26T04:21:54.237Z,100610.83
2019-01-26T04:25:39.200Z,100597.77
2019-01-26T04:29:23.827Z,100603.70
2019-01-26T04:33:08.438Z,100593.14
2019-01-26T04:36:53.133Z,100598.41
2019-01-26T04:40:37.763Z,100596.79
2019-01-26T04:44:22.615Z,100590.97
2019-01-26T04:48:07.565Z,100594.02
2019-01-26T04:51:44.459Z,100587.30
2019-01-26T04:55:47.918Z,100573.43
2019-01-26T04:59:32.540Z,100574.38
2019-01-26T05:03:17.453Z,100571.81
2019-01-26T05:06:54.377Z,100575.03
2019-01-26T05:10:38.976Z,100559.70
2019-01-26T05:14:23.577Z,100554.12
2019-01-26T05:18:08.213Z,100551.14
2019-01-26T05:21:52.821Z,100544.77
2019-01-26T05:25:37.443Z,100541.75
2019-01-26T05:29:22.073Z,100548.22
2019-01-26T05:33:25.535Z,100552.47
2019-01-26T05:37:10.151Z,100546.70
2019-01-26T05:40:54.751Z,100547.86
2019-01-26T05:44:39.385Z,100553.80
2019-01-26T05:48:05.061Z,100557.83
2019-01-26T05:51:50.211Z,100566.91
2019-01-26T05:55:34.842Z,100571.77
2019-01-26T05:59:19.457Z,100565.17
2019-01-26T06:03:04.065Z,100569.77
2019-01-26T06:06:48.738Z,100577.66
2019-01-26T06:10:33.358Z,100569.30
2019-01-26T06:14:17.931Z,100561.49
2019-01-26T06:18:02.848Z,100560.62
2019-01-26T06:21:47.536Z,100561.48
2019-01-26T06:25:32.173Z,100552.77
2019-01-26T06:29:16.797Z,100531.19
2019-01-26T06:33:01.462Z,100521.94
2019-01-26T06:36:46.080Z,100532.34
2019-01-26T06:40:30.696Z,100524.96
2019-01-26T06:44:15.297Z,100531.42
2019-01-26T06:48:18.741Z,100542.06
2019-01-26T06:51:55.968Z,100525.11
2019-01-26T06:55:40.582Z,100540.34
2019-01-26T06:59:25.247Z,100538.34
2019-01-26T07:03:10.030Z,100534.16
2019-01-26T07:07:19.783Z,100543.76
2019-01-26T07:10:52.056Z,100536.00
2019-01-26T07:14:36.722Z,100531.62
2019-01-26T07:18:21.423Z,100523.83
2019-01-26T07:22:17.930Z,100531.47
2019-01-26T07:25:52.812Z,100532.34
2019-01-26T07:29:37.765Z,100533.56
2019-01-26T07:33:41.444Z,100525.34
2019-01-26T07:37:29.050Z,100526.13
2019-01-26T07:41:14.073Z,100521.82
2019-01-26T07:44:58.735Z,100517.76
2019-01-26T07:48:44.548Z,100521.47
2019-01-26T07:52:29.841Z,100521.57
2019-01-26T07:56:36.750Z,100521.80
2019-01-26T08:00:08.627Z,100525.58
2019-01-26T08:03:34.308Z,100535.59
2019-01-26T08:07:19.034Z,100535.31
2019-01-26T08:11:22.744Z,100539.64
2019-01-26T08:15:09.252Z,100551.78
2019-01-26T08:18:56.583Z,100544.64
2019-01-26T08:22:22.614Z,100548.28
2019-01-26T08:26:07.528Z,100542.83
2019-01-26T08:29:52.630Z,100537.27
2019-01-26T08:33:37.493Z,100537.12
2019-01-26T08:37:22.156Z,100541.77
2019-01-26T08:41:07.282Z,100544.42
2019-01-26T08:44:52.458Z,100547.47
2019-01-26T08:48:37.134Z,100539.41
2019-01-26T08:52:14.276Z,100549.33
2019-01-26T08:56:17.863Z,100549.79
2019-01-26T09:00:02.495Z,100544.70
2019-01-26T09:04:05.935Z,100543.63
2019-01-26T09:07:42.855Z,100536.33
2019-01-26T09:11:27.466Z,100538.06
2019-01-26T09:15:12.383Z,100550.19
2019-01-26T09:18:57.096Z,100549.01
2019-01-26T09:22:41.727Z,100563.25
2019-01-26T09:26:26.433Z,100560.19
2019-01-26T09:30:11.443Z,100551.58
2019-01-26T09:33:56.385Z,100547.75
2019-01-26T09:37:41.342Z,100537.88
2019-01-26T09:41:44.805Z,100547.44
2019-01-26T09:45:30.169Z,100539.72
2019-01-26T09:49:34.341Z,100547.98
2019-01-26T09:53:19.143Z,100549.24
2019-01-26T09:57:03.852Z,100528.98
2019-01-26T10:00:48.667Z,100532.74
2019-01-26T10:04:33.423Z,100544.55
2019-01-26T10:08:18.134Z,100531.70
2019-01-26T10:12:02.840Z,100532.05
2019-01-26T10:15:47.540Z,100549.03
2019-01-26T10:19:32.717Z,100520.92
2019-01-26T10:27:08.214Z,100532.78
2019-01-26T10:30:56.066Z,100529.03
2019-01-26T10:34:40.730Z,100520.93
2019-01-26T10:38:06.333Z,100517.86
2019-01-26T10:42:09.834Z,100511.92
2019-01-26T10:45:54.607Z,100508.30
2019-01-26T10:49:20.349Z,100511.61
2019-01-26T10:53:00.000Z,100510.36
2019-01-26T10:56:46.601Z,100497.20
2019-01-26T11:00:31.281Z,100493.55
2019-01-26T11:04:16.068Z,100498.24
2019-01-26T11:07:41.689Z,100490.91
2019-01-26T11:11:27.878Z,100493.28
2019-01-26T11:14:53.744Z,100494.08
2019-01-26T11:18:38.718Z,100492.92
2019-01-26T11:22:23.919Z,100484.31
2019-01-26T11:26:08.809Z,100481.98
2019-01-26T11:29:53.777Z,100475.15
2019-01-26T11:33:39.295Z,100465.11
2019-01-26T11:37:24.426Z,100464.27
2019-01-26T11:41:09.392Z,100456.09
2019-01-26T11:45:14.846Z,100450.55
2019-01-26T11:49:00.360Z,100452.38
2019-01-26T11:52:39.467Z,100439.25
2019-01-26T11:56:43.461Z,100434.64
2019-01-26T12:00:48.111Z,100429.47
2019-01-26T12:04:52.233Z,100414.19
2019-01-26T12:08:37.201Z,100399.94
2019-01-26T12:12:22.024Z,100397.38
2019-01-26T12:16:07.112Z,100396.39
2019-01-26T12:19:51.958Z,100390.81
2019-01-26T12:23:17.954Z,100386.11
2019-01-26T12:27:03.074Z,100381.03
2019-01-26T12:30:47.991Z,100387.94
2019-01-26T12:34:33.487Z,100372.28
2019-01-26T12:37:59.091Z,100360.33
2019-01-26T12:41:25.030Z,100353.63
2019-01-26T12:45:13.776Z,100344.39
2019-01-26T12:48:50.884Z,100338.47
2019-01-26T12:52:35.774Z,100332.36
2019-01-26T12:56:20.692Z,100328.56
2019-01-26T13:00:07.304Z,100326.17
2019-01-26T13:03:52.146Z,100308.81
2019-01-26T13:07:37.541Z,100312.20
2019-01-26T13:11:24.982Z,100308.81
2019-01-26T13:15:15.209Z,100289.57
2019-01-26T13:18:57.420Z,100288.61
2019-01-26T13:22:41.966Z,100285.14
2019-01-26T13:26:27.039Z,100283.11
2019-01-26T13:30:15.627Z,100278.81
2019-01-26T13:34:00.714Z,100276.46
2019-01-26T13:37:45.810Z,100269.52
2019-01-26T13:41:31.102Z,100264.91
2019-01-26T13:44:56.666Z,100248.85
2019-01-26T13:48:41.443Z,100245.36
2019-01-26T13:53:06.269Z,100246.92
2019-01-26T13:56:51.712Z,100253.42
2019-01-26T14:00:37.258Z,100227.50
2019-01-26T14:04:23.016Z,100228.41
2019-01-26T14:08:08.231Z,100234.05
2019-01-26T14:11:53.789Z,100226.28
2019-01-26T14:15:38.895Z,100232.02
2019-01-26T14:22:55.853Z,100208.12
2019-01-26T14:26:40.810Z,100206.30
2019-01-26T14:30:28.775Z,100197.59
2019-01-26T14:34:14.431Z,100185.39
2019-01-26T14:37:59.316Z,100180.03
2019-01-26T14:41:44.242Z,100168.13
2019-01-26T14:45:29.871Z,100169.22
2019-01-26T14:49:14.654Z,100170.84
2019-01-26T14:52:59.736Z,100163.34
2019-01-26T14:56:25.459Z,100151.95
2019-01-26T15:00:15.766Z,100143.72
2019-01-26T15:04:01.010Z,100147.31
2019-01-26T15:07:48.151Z,100134.91
2019-01-26T15:11:34.037Z,100136.63
2019-01-26T15:19:09.539Z,100118.10
2019-01-26T15:22:55.213Z,100112.52
2019-01-26T15:26:40.409Z,100103.25
2019-01-26T15:30:27.804Z,100100.94
2019-01-26T15:34:12.820Z,100091.84
2019-01-26T15:37:57.587Z,100091.55
2019-01-26T15:41:42.516Z,100086.52
2019-01-26T15:45:34.406Z,100080.25
2019-01-26T15:49:21.788Z,100077.19
2019-01-26T15:53:00.672Z,100072.02
2019-01-26T15:56:26.286Z,100061.02
2019-01-26T16:00:15.475Z,100065.53
2019-01-26T16:03:41.065Z,100061.14
2019-01-26T16:07:25.921Z,100047.28
2019-01-26T16:11:12.181Z,100035.13
2019-01-26T16:14:38.031Z,100038.14
2019-01-26T16:18:03.781Z,100029.70
2019-01-26T16:21:29.411Z,100029.41
2019-01-26T16:25:14.448Z,100022.29
2019-01-26T16:28:40.075Z,100023.25
2019-01-26T16:32:25.025Z,100017.47
2019-01-26T16:36:09.883Z,100021.99
2019-01-26T16:39:55.305Z,100016.20
2019-01-26T16:43:20.890Z,100007.73
2019-01-26T16:47:00.631Z,100007.25
2019-01-26T16:50:28.528Z,99995.92
2019-01-26T16:54:13.665Z,99995.55
2019-01-26T16:57:39.293Z,99985.40
2019-01-26T17:01:24.129Z,99965.36
2019-01-26T17:05:09.628Z,99957.97
2019-01-26T17:08:54.277Z,99956.63
2019-01-26T17:12:39.065Z,99945.61
2019-01-26T17:16:24.131Z,99947.53
2019-01-26T17:20:34.836Z,99932.94
2019-01-26T17:24:17.202Z,99928.70
2019-01-26T17:28:02.613Z,99920.39
2019-01-26T17:31:47.711Z,99917.17
2019-01-26T17:39:55.614Z,99916.20
2019-01-26T17:43:40.522Z,99905.10
2019-01-26T17:47:17.895Z,99896.45
2019-01-26T17:51:02.665Z,99881.55
2019-01-26T17:54:47.882Z,99880.04
2019-01-26T17:58:32.700Z,99869.56
2019-01-26T18:02:17.640Z,99860.27
2019-01-26T18:06:22.016Z,99855.87
2019-01-26T18:10:28.244Z,99857.33
2019-01-26T18:14:13.365Z,99845.15
2019-01-26T18:17:58.224Z,99841.50
2019-01-26T18:21:43.149Z,99828.02
2019-01-26T18:29:17.694Z,99816.31
2019-01-26T18:33:03.036Z,99812.85
2019-01-26T18:36:48.676Z,99794.84
2019-01-26T18:40:21.053Z,99791.45
2019-01-26T18:44:06.347Z,99781.41
2019-01-26T18:47:31.927Z,99781.09
2019-01-26T18:51:16.891Z,99769.78
2019-01-26T18:58:46.446Z,99749.64
2019-01-26T19:02:32.401Z,99747.30
2019-01-26T19:06:17.203Z,99746.16
2019-01-26T19:10:02.086Z,99741.77
2019-01-26T19:13:47.104Z,99734.63
2019-01-26T19:17:31.944Z,99724.03
2019-01-26T19:21:03.150Z,99721.31
2019-01-26T19:28:34.908Z,99709.75
2019-01-26T19:32:19.953Z,99703.55
2019-01-26T19:36:05.623Z,99705.37
2019-01-26T19:39:50.685Z,99698.61
2019-01-26T19:43:35.604Z,99696.05
2019-01-26T19:47:14.040Z,99685.77
2019-01-26T19:50:59.159Z,99672.89
2019-01-26T19:54:24.744Z,99668.89
2019-01-26T19:58:09.685Z,99670.80
2019-01-26T20:01:54.556Z,99663.63
2019-01-26T20:05:39.469Z,99657.39
2019-01-26T20:09:24.102Z,99652.30
2019-01-26T20:13:08.757Z,99641.78
2019-01-26T20:20:57.157Z,99616.31
2019-01-26T20:24:41.756Z,99620.83
2019-01-26T20:28:26.394Z,99604.61
2019-01-26T20:32:11.073Z,99596.80
2019-01-26T20:35:55.670Z,99581.41
2019-01-26T20:39:21.362Z,99569.82
2019-01-26T20:42:58.690Z,99566.55
2019-01-26T20:46:43.361Z,99565.21
2019-01-26T20:50:28.202Z,99545.52
2019-01-26T20:54:12.533Z,99543.13
2019-01-26T20:57:57.191Z,99539.72
2019-01-26T21:01:41.910Z,99531.18
2019-01-26T21:05:26.702Z,99529.37
2019-01-26T21:09:11.619Z,99513.18
2019-01-26T21:12:56.684Z,99501.97
2019-01-26T21:16:41.281Z,99491.83
2019-01-26T21:20:26.471Z,99469.98
2019-01-26T21:24:11.266Z,99453.88
2019-01-26T21:27:55.916Z,99454.07
2019-01-26T21:31:59.346Z,99441.79
2019-01-26T21:35:43.957Z,99433.31
2019-01-26T21:39:28.581Z,99421.14
2019-01-26T21:43:13.180Z,99412.02
2019-01-26T21:46:57.942Z,99405.32
2019-01-26T21:50:42.578Z,99400.06
2019-01-26T21:54:27.192Z,99393.95
2019-01-26T21:58:11.810Z,99388.22
2019-01-26T22:01:56.577Z,99379.31
2019-01-26T22:05:41.189Z,99382.97
2019-01-26T22:09:25.819Z,99375.53
2019-01-26T22:13:10.443Z,99374.18
2019-01-26T22:16:55.089Z,99357.62
2019-01-26T22:20:39.714Z,99358.45
2019-01-26T22:24:24.290Z,99357.25
2019-01-26T22:28:08.915Z,99345.03
2019-01-26T22:31:53.560Z,99328.10
2019-01-26T22:35:38.392Z,99324.80
2019-01-26T22:39:22.989Z,99310.17
2019-01-26T22:43:07.616Z,99304.05
2019-01-26T22:46:45.031Z,99305.39
2019-01-26T22:50:30.185Z,99296.17
2019-01-26T22:54:14.771Z,99286.32
2019-01-26T22:57:59.371Z,99278.55
2019-01-26T23:01:44.104Z,99266.24
2019-01-26T23:06:06.896Z,99250.92
2019-01-26T23:10:29.690Z,99243.12
2019-01-26T23:14:37.634Z,99216.63
2019-01-26T23:19:02.806Z,99213.11
2019-01-26T23:23:25.889Z,99197.67
2019-01-26T23:27:36.269Z,99195.25
2019-01-26T23:32:00.584Z,99179.55
2019-01-26T23:35:45.460Z,99170.33
2019-01-26T23:39:32.506Z,99143.91
2019-01-26T23:43:09.573Z,99138.14
2019-01-26T23:47:13.039Z,99125.20
2019-01-26T23:58:52.339Z,99114.74
